sensor_id;sensor_type;location;lat;lon;timestamp;P1;durP1;ratioP1;P2;durP2;ratioP2
64885;SDS011;51514;52.206;5.114;2023-10-08T00:01:01;5.43;;;3.30;;
64885;SDS011;51514;52.206;5.114;2023-10-08T00:03:28;4.63;;;2.92;;
64885;SDS011;51514;52.206;5.114;2023-10-08T00:05:54;6.13;;;3.85;;
64885;SDS011;51514;52.206;5.114;2023-10-08T00:08:20;5.68;;;3.45;;
64885;SDS011;51514;52.206;5.114;2023-10-08T00:10:46;4.88;;;3.15;;
64885;SDS011;51514;52.206;5.114;2023-10-08T00:13:12;4.97;;;2.83;;
64885;SDS011;51514;52.206;5.114;2023-10-08T00:15:40;5.63;;;3.33;;
64885;SDS011;51514;52.206;5.114;2023-10-08T00:18:24;6.30;;;3.13;;
64885;SDS011;51514;52.206;5.114;2023-10-08T00:20:50;5.10;;;2.80;;
64885;SDS011;51514;52.206;5.114;2023-10-08T00:23:34;4.88;;;3.00;;
64885;SDS011;51514;52.206;5.114;2023-10-08T00:26:00;5.90;;;3.50;;
64885;SDS011;51514;52.206;5.114;2023-10-08T00:28:31;4.60;;;2.95;;
64885;SDS011;51514;52.206;5.114;2023-10-08T00:30:57;5.65;;;3.38;;
64885;SDS011;51514;52.206;5.114;2023-10-08T00:33:23;6.10;;;3.35;;
64885;SDS011;51514;52.206;5.114;2023-10-08T00:35:49;6.65;;;3.60;;
64885;SDS011;51514;52.206;5.114;2023-10-08T00:38:14;5.68;;;3.10;;
64885;SDS011;51514;52.206;5.114;2023-10-08T00:40:41;6.32;;;3.10;;
64885;SDS011;51514;52.206;5.114;2023-10-08T00:43:27;6.47;;;3.35;;
64885;SDS011;51514;52.206;5.114;2023-10-08T00:45:55;6.43;;;3.22;;
64885;SDS011;51514;52.206;5.114;2023-10-08T00:48:24;6.53;;;3.27;;
64885;SDS011;51514;52.206;5.114;2023-10-08T00:50:53;5.65;;;3.28;;
64885;SDS011;51514;52.206;5.114;2023-10-08T00:53:34;5.63;;;3.20;;
64885;SDS011;51514;52.206;5.114;2023-10-08T00:56:05;5.78;;;3.20;;
64885;SDS011;51514;52.206;5.114;2023-10-08T00:58:39;5.38;;;2.80;;
64885;SDS011;51514;52.206;5.114;2023-10-08T01:01:06;5.43;;;3.17;;
64885;SDS011;51514;52.206;5.114;2023-10-08T01:03:35;6.10;;;3.10;;
64885;SDS011;51514;52.206;5.114;2023-10-08T01:06:01;6.13;;;3.50;;
64885;SDS011;51514;52.206;5.114;2023-10-08T01:08:28;4.53;;;2.60;;
64885;SDS011;51514;52.206;5.114;2023-10-08T01:11:22;5.75;;;3.10;;
64885;SDS011;51514;52.206;5.114;2023-10-08T01:14:07;5.72;;;3.05;;
64885;SDS011;51514;52.206;5.114;2023-10-08T01:16:32;6.15;;;3.17;;
64885;SDS011;51514;52.206;5.114;2023-10-08T01:18:59;4.28;;;2.70;;
64885;SDS011;51514;52.206;5.114;2023-10-08T01:21:28;5.30;;;3.28;;
64885;SDS011;51514;52.206;5.114;2023-10-08T01:24:01;4.15;;;2.78;;
64885;SDS011;51514;52.206;5.114;2023-10-08T01:26:30;5.05;;;3.10;;
64885;SDS011;51514;52.206;5.114;2023-10-08T01:28:57;4.70;;;2.75;;
64885;SDS011;51514;52.206;5.114;2023-10-08T01:31:27;5.80;;;3.17;;
64885;SDS011;51514;52.206;5.114;2023-10-08T01:33:53;5.88;;;3.20;;
64885;SDS011;51514;52.206;5.114;2023-10-08T01:36:21;5.88;;;3.30;;
64885;SDS011;51514;52.206;5.114;2023-10-08T01:38:48;6.78;;;3.13;;
64885;SDS011;51514;52.206;5.114;2023-10-08T01:41:14;4.57;;;2.88;;
64885;SDS011;51514;52.206;5.114;2023-10-08T01:43:58;6.40;;;3.35;;
64885;SDS011;51514;52.206;5.114;2023-10-08T01:46:24;4.80;;;2.78;;
64885;SDS011;51514;52.206;5.114;2023-10-08T01:48:51;5.47;;;3.35;;
64885;SDS011;51514;52.206;5.114;2023-10-08T01:51:21;4.65;;;2.90;;
64885;SDS011;51514;52.206;5.114;2023-10-08T01:54:02;5.57;;;2.72;;
64885;SDS011;51514;52.206;5.114;2023-10-08T01:56:28;5.80;;;2.78;;
64885;SDS011;51514;52.206;5.114;2023-10-08T01:58:55;4.95;;;3.00;;
64885;SDS011;51514;52.206;5.114;2023-10-08T02:01:20;5.78;;;3.13;;
64885;SDS011;51514;52.206;5.114;2023-10-08T02:03:46;5.72;;;3.00;;
64885;SDS011;51514;52.206;5.114;2023-10-08T02:06:13;5.00;;;3.20;;
64885;SDS011;51514;52.206;5.114;2023-10-08T02:08:38;4.65;;;2.80;;
64885;SDS011;51514;52.206;5.114;2023-10-08T02:11:03;5.00;;;2.88;;
64885;SDS011;51514;52.206;5.114;2023-10-08T02:13:29;5.80;;;3.47;;
64885;SDS011;51514;52.206;5.114;2023-10-08T02:15:55;5.05;;;2.92;;
64885;SDS011;51514;52.206;5.114;2023-10-08T02:18:21;4.90;;;3.08;;
64885;SDS011;51514;52.206;5.114;2023-10-08T02:20:48;4.88;;;2.95;;
64885;SDS011;51514;52.206;5.114;2023-10-08T02:23:13;5.07;;;2.95;;
64885;SDS011;51514;52.206;5.114;2023-10-08T02:25:39;4.95;;;2.90;;
64885;SDS011;51514;52.206;5.114;2023-10-08T02:28:07;5.28;;;3.08;;
64885;SDS011;51514;52.206;5.114;2023-10-08T02:30:34;4.63;;;3.00;;
64885;SDS011;51514;52.206;5.114;2023-10-08T02:33:01;5.18;;;2.90;;
64885;SDS011;51514;52.206;5.114;2023-10-08T02:35:27;6.50;;;3.20;;
64885;SDS011;51514;52.206;5.114;2023-10-08T02:37:52;4.50;;;2.85;;
64885;SDS011;51514;52.206;5.114;2023-10-08T02:40:19;4.25;;;2.72;;
64885;SDS011;51514;52.206;5.114;2023-10-08T02:42:51;4.30;;;2.65;;
64885;SDS011;51514;52.206;5.114;2023-10-08T02:45:24;4.97;;;2.90;;
64885;SDS011;51514;52.206;5.114;2023-10-08T02:47:50;7.00;;;3.00;;
64885;SDS011;51514;52.206;5.114;2023-10-08T02:50:17;4.22;;;2.55;;
64885;SDS011;51514;52.206;5.114;2023-10-08T02:52:43;4.72;;;2.85;;
64885;SDS011;51514;52.206;5.114;2023-10-08T02:55:12;5.00;;;3.10;;
64885;SDS011;51514;52.206;5.114;2023-10-08T02:57:49;5.47;;;3.10;;
64885;SDS011;51514;52.206;5.114;2023-10-08T03:00:15;6.03;;;3.17;;
64885;SDS011;51514;52.206;5.114;2023-10-08T03:02:42;4.07;;;2.70;;
64885;SDS011;51514;52.206;5.114;2023-10-08T03:05:07;4.22;;;2.80;;
64885;SDS011;51514;52.206;5.114;2023-10-08T03:07:37;4.20;;;2.90;;
64885;SDS011;51514;52.206;5.114;2023-10-08T03:10:03;5.13;;;3.10;;
64885;SDS011;51514;52.206;5.114;2023-10-08T03:12:29;5.65;;;2.88;;
64885;SDS011;51514;52.206;5.114;2023-10-08T03:14:58;4.13;;;2.80;;
64885;SDS011;51514;52.206;5.114;2023-10-08T03:17:28;4.32;;;2.60;;
64885;SDS011;51514;52.206;5.114;2023-10-08T03:19:54;5.10;;;3.20;;
64885;SDS011;51514;52.206;5.114;2023-10-08T03:22:27;5.55;;;2.92;;
64885;SDS011;51514;52.206;5.114;2023-10-08T03:24:58;4.97;;;2.70;;
64885;SDS011;51514;52.206;5.114;2023-10-08T03:27:39;5.57;;;3.00;;
64885;SDS011;51514;52.206;5.114;2023-10-08T03:30:07;4.68;;;2.95;;
64885;SDS011;51514;52.206;5.114;2023-10-08T03:32:38;5.72;;;3.20;;
64885;SDS011;51514;52.206;5.114;2023-10-08T03:35:06;4.97;;;2.72;;
64885;SDS011;51514;52.206;5.114;2023-10-08T03:40:10;6.15;;;3.65;;
64885;SDS011;51514;52.206;5.114;2023-10-08T03:43:07;4.20;;;2.67;;
64885;SDS011;51514;52.206;5.114;2023-10-08T03:45:40;5.10;;;3.17;;
64885;SDS011;51514;52.206;5.114;2023-10-08T03:48:24;3.80;;;2.65;;
64885;SDS011;51514;52.206;5.114;2023-10-08T03:50:50;4.28;;;2.70;;
64885;SDS011;51514;52.206;5.114;2023-10-08T03:53:31;4.85;;;2.80;;
64885;SDS011;51514;52.206;5.114;2023-10-08T03:55:59;4.78;;;2.88;;
64885;SDS011;51514;52.206;5.114;2023-10-08T03:58:30;5.75;;;2.95;;
64885;SDS011;51514;52.206;5.114;2023-10-08T04:00:59;5.63;;;3.10;;
64885;SDS011;51514;52.206;5.114;2023-10-08T04:03:34;5.43;;;2.78;;
64885;SDS011;51514;52.206;5.114;2023-10-08T04:06:21;5.93;;;2.83;;
64885;SDS011;51514;52.206;5.114;2023-10-08T04:08:54;5.85;;;3.00;;
64885;SDS011;51514;52.206;5.114;2023-10-08T04:11:32;4.43;;;2.83;;
64885;SDS011;51514;52.206;5.114;2023-10-08T04:14:01;5.35;;;2.92;;
64885;SDS011;51514;52.206;5.114;2023-10-08T04:16:32;5.53;;;2.83;;
64885;SDS011;51514;52.206;5.114;2023-10-08T04:19:01;4.07;;;2.85;;
64885;SDS011;51514;52.206;5.114;2023-10-08T04:21:28;5.40;;;3.10;;
64885;SDS011;51514;52.206;5.114;2023-10-08T04:23:54;4.57;;;2.72;;
64885;SDS011;51514;52.206;5.114;2023-10-08T04:26:23;5.40;;;2.85;;
64885;SDS011;51514;52.206;5.114;2023-10-08T04:28:56;3.80;;;2.50;;
64885;SDS011;51514;52.206;5.114;2023-10-08T04:31:27;3.97;;;2.65;;
64885;SDS011;51514;52.206;5.114;2023-10-08T04:33:53;4.63;;;2.80;;
64885;SDS011;51514;52.206;5.114;2023-10-08T04:36:25;4.00;;;2.60;;
64885;SDS011;51514;52.206;5.114;2023-10-08T04:38:51;5.07;;;3.00;;
64885;SDS011;51514;52.206;5.114;2023-10-08T04:41:19;5.23;;;3.10;;
64885;SDS011;51514;52.206;5.114;2023-10-08T04:43:47;4.97;;;3.03;;
64885;SDS011;51514;52.206;5.114;2023-10-08T04:46:14;4.72;;;2.45;;
64885;SDS011;51514;52.206;5.114;2023-10-08T04:48:58;6.45;;;3.03;;
64885;SDS011;51514;52.206;5.114;2023-10-08T04:51:23;6.10;;;2.70;;
64885;SDS011;51514;52.206;5.114;2023-10-08T04:53:49;4.07;;;2.38;;
64885;SDS011;51514;52.206;5.114;2023-10-08T04:56:14;5.13;;;2.80;;
64885;SDS011;51514;52.206;5.114;2023-10-08T04:58:49;4.93;;;2.75;;
64885;SDS011;51514;52.206;5.114;2023-10-08T05:01:15;3.40;;;2.50;;
64885;SDS011;51514;52.206;5.114;2023-10-08T05:04:14;4.80;;;2.78;;
64885;SDS011;51514;52.206;5.114;2023-10-08T05:06:51;5.80;;;2.60;;
64885;SDS011;51514;52.206;5.114;2023-10-08T05:09:26;4.72;;;2.60;;
64885;SDS011;51514;52.206;5.114;2023-10-08T05:12:11;5.53;;;2.90;;
64885;SDS011;51514;52.206;5.114;2023-10-08T05:14:59;5.40;;;2.85;;
64885;SDS011;51514;52.206;5.114;2023-10-08T05:17:37;5.03;;;2.70;;
64885;SDS011;51514;52.206;5.114;2023-10-08T05:20:18;6.32;;;2.92;;
64885;SDS011;51514;52.206;5.114;2023-10-08T05:23:06;6.38;;;2.60;;
64885;SDS011;51514;52.206;5.114;2023-10-08T05:26:05;5.03;;;2.50;;
64885;SDS011;51514;52.206;5.114;2023-10-08T05:28:35;5.72;;;2.80;;
64885;SDS011;51514;52.206;5.114;2023-10-08T05:31:11;5.45;;;3.05;;
64885;SDS011;51514;52.206;5.114;2023-10-08T05:33:40;5.93;;;2.90;;
64885;SDS011;51514;52.206;5.114;2023-10-08T05:36:40;4.05;;;2.50;;
64885;SDS011;51514;52.206;5.114;2023-10-08T05:39:30;6.63;;;3.20;;
64885;SDS011;51514;52.206;5.114;2023-10-08T05:42:05;4.57;;;2.70;;
64885;SDS011;51514;52.206;5.114;2023-10-08T05:44:43;4.68;;;2.78;;
64885;SDS011;51514;52.206;5.114;2023-10-08T05:47:35;5.03;;;2.63;;
64885;SDS011;51514;52.206;5.114;2023-10-08T05:50:02;5.47;;;2.72;;
64885;SDS011;51514;52.206;5.114;2023-10-08T05:52:44;5.32;;;3.05;;
64885;SDS011;51514;52.206;5.114;2023-10-08T05:55:29;4.38;;;2.53;;
64885;SDS011;51514;52.206;5.114;2023-10-08T05:58:01;3.20;;;2.08;;
64885;SDS011;51514;52.206;5.114;2023-10-08T06:00:43;5.10;;;2.47;;
64885;SDS011;51514;52.206;5.114;2023-10-08T06:03:12;3.22;;;2.35;;
64885;SDS011;51514;52.206;5.114;2023-10-08T06:06:08;4.72;;;2.80;;
64885;SDS011;51514;52.206;5.114;2023-10-08T06:08:36;4.72;;;2.70;;
64885;SDS011;51514;52.206;5.114;2023-10-08T06:11:20;3.92;;;2.30;;
64885;SDS011;51514;52.206;5.114;2023-10-08T06:14:04;5.13;;;2.53;;
64885;SDS011;51514;52.206;5.114;2023-10-08T06:16:52;4.47;;;2.40;;
64885;SDS011;51514;52.206;5.114;2023-10-08T06:19:38;5.15;;;2.33;;
64885;SDS011;51514;52.206;5.114;2023-10-08T06:22:03;5.15;;;2.38;;
64885;SDS011;51514;52.206;5.114;2023-10-08T06:24:29;5.35;;;2.58;;
64885;SDS011;51514;52.206;5.114;2023-10-08T06:26:54;3.35;;;2.40;;
64885;SDS011;51514;52.206;5.114;2023-10-08T06:29:20;3.35;;;1.98;;
64885;SDS011;51514;52.206;5.114;2023-10-08T06:31:55;4.85;;;2.53;;
64885;SDS011;51514;52.206;5.114;2023-10-08T06:34:22;4.05;;;2.20;;
64885;SDS011;51514;52.206;5.114;2023-10-08T06:36:52;3.92;;;2.20;;
64885;SDS011;51514;52.206;5.114;2023-10-08T06:39:22;3.28;;;2.17;;
64885;SDS011;51514;52.206;5.114;2023-10-08T06:41:58;4.53;;;2.50;;
64885;SDS011;51514;52.206;5.114;2023-10-08T06:44:23;4.68;;;2.30;;
64885;SDS011;51514;52.206;5.114;2023-10-08T06:46:49;4.72;;;1.92;;
64885;SDS011;51514;52.206;5.114;2023-10-08T06:49:17;4.60;;;2.17;;
64885;SDS011;51514;52.206;5.114;2023-10-08T06:51:44;4.18;;;2.13;;
64885;SDS011;51514;52.206;5.114;2023-10-08T06:54:09;3.50;;;2.08;;
64885;SDS011;51514;52.206;5.114;2023-10-08T06:59:04;3.55;;;2.20;;
64885;SDS011;51514;52.206;5.114;2023-10-08T07:01:30;3.15;;;2.00;;
64885;SDS011;51514;52.206;5.114;2023-10-08T07:04:06;4.60;;;2.15;;
64885;SDS011;51514;52.206;5.114;2023-10-08T07:06:37;3.95;;;2.20;;
64885;SDS011;51514;52.206;5.114;2023-10-08T07:09:04;2.60;;;1.83;;
64885;SDS011;51514;52.206;5.114;2023-10-08T07:11:31;3.72;;;2.13;;
64885;SDS011;51514;52.206;5.114;2023-10-08T07:14:02;3.50;;;1.95;;
64885;SDS011;51514;52.206;5.114;2023-10-08T07:16:29;3.47;;;2.40;;
64885;SDS011;51514;52.206;5.114;2023-10-08T07:18:55;2.95;;;1.83;;
64885;SDS011;51514;52.206;5.114;2023-10-08T07:21:26;3.67;;;2.22;;
64885;SDS011;51514;52.206;5.114;2023-10-08T07:24:04;3.17;;;1.80;;
64885;SDS011;51514;52.206;5.114;2023-10-08T07:26:34;3.90;;;1.98;;
64885;SDS011;51514;52.206;5.114;2023-10-08T07:29:06;4.20;;;1.80;;
64885;SDS011;51514;52.206;5.114;2023-10-08T07:31:37;4.85;;;2.25;;
64885;SDS011;51514;52.206;5.114;2023-10-08T07:34:23;2.95;;;1.88;;
64885;SDS011;51514;52.206;5.114;2023-10-08T07:36:49;2.53;;;1.70;;
64885;SDS011;51514;52.206;5.114;2023-10-08T07:39:15;3.20;;;1.80;;
64885;SDS011;51514;52.206;5.114;2023-10-08T07:41:57;3.40;;;1.90;;
64885;SDS011;51514;52.206;5.114;2023-10-08T07:44:24;5.97;;;2.03;;
64885;SDS011;51514;52.206;5.114;2023-10-08T07:46:53;2.63;;;1.50;;
64885;SDS011;51514;52.206;5.114;2023-10-08T07:49:22;3.72;;;1.98;;
64885;SDS011;51514;52.206;5.114;2023-10-08T07:51:50;2.50;;;1.57;;
64885;SDS011;51514;52.206;5.114;2023-10-08T07:54:23;3.58;;;1.63;;
64885;SDS011;51514;52.206;5.114;2023-10-08T07:56:50;2.95;;;1.88;;
64885;SDS011;51514;52.206;5.114;2023-10-08T07:59:25;2.58;;;1.50;;
64885;SDS011;51514;52.206;5.114;2023-10-08T08:01:50;2.28;;;1.50;;
64885;SDS011;51514;52.206;5.114;2023-10-08T08:04:18;3.00;;;1.33;;
64885;SDS011;51514;52.206;5.114;2023-10-08T08:06:50;3.83;;;1.90;;
64885;SDS011;51514;52.206;5.114;2023-10-08T08:09:17;2.60;;;1.48;;
64885;SDS011;51514;52.206;5.114;2023-10-08T08:11:44;2.43;;;1.47;;
64885;SDS011;51514;52.206;5.114;2023-10-08T08:14:12;3.40;;;1.63;;
64885;SDS011;51514;52.206;5.114;2023-10-08T08:16:49;1.52;;;1.20;;
64885;SDS011;51514;52.206;5.114;2023-10-08T08:19:15;2.47;;;1.63;;
64885;SDS011;51514;52.206;5.114;2023-10-08T08:21:42;3.40;;;1.63;;
64885;SDS011;51514;52.206;5.114;2023-10-08T08:24:10;2.87;;;1.70;;
64885;SDS011;51514;52.206;5.114;2023-10-08T08:26:37;3.95;;;1.42;;
64885;SDS011;51514;52.206;5.114;2023-10-08T08:29:25;2.30;;;1.40;;
64885;SDS011;51514;52.206;5.114;2023-10-08T08:31:51;4.13;;;1.45;;
64885;SDS011;51514;52.206;5.114;2023-10-08T08:34:18;3.80;;;1.58;;
64885;SDS011;51514;52.206;5.114;2023-10-08T08:36:46;2.70;;;1.30;;
64885;SDS011;51514;52.206;5.114;2023-10-08T08:39:14;5.93;;;1.90;;
64885;SDS011;51514;52.206;5.114;2023-10-08T08:41:54;2.15;;;1.30;;
64885;SDS011;51514;52.206;5.114;2023-10-08T08:44:25;3.92;;;1.50;;
64885;SDS011;51514;52.206;5.114;2023-10-08T08:46:54;3.25;;;1.60;;
64885;SDS011;51514;52.206;5.114;2023-10-08T08:49:23;1.98;;;1.27;;
64885;SDS011;51514;52.206;5.114;2023-10-08T08:51:50;2.17;;;1.35;;
64885;SDS011;51514;52.206;5.114;2023-10-08T08:54:20;2.10;;;1.30;;
64885;SDS011;51514;52.206;5.114;2023-10-08T08:56:46;4.53;;;1.50;;
64885;SDS011;51514;52.206;5.114;2023-10-08T08:59:12;3.30;;;1.40;;
64885;SDS011;51514;52.206;5.114;2023-10-08T09:01:38;6.90;;;1.40;;
64885;SDS011;51514;52.206;5.114;2023-10-08T09:04:05;5.10;;;1.40;;
64885;SDS011;51514;52.206;5.114;2023-10-08T09:06:34;2.50;;;1.10;;
64885;SDS011;51514;52.206;5.114;2023-10-08T09:09:03;3.17;;;1.45;;
64885;SDS011;51514;52.206;5.114;2023-10-08T09:11:50;3.08;;;1.23;;
64885;SDS011;51514;52.206;5.114;2023-10-08T09:16:50;2.47;;;1.00;;
64885;SDS011;51514;52.206;5.114;2023-10-08T09:19:17;2.55;;;1.02;;
64885;SDS011;51514;52.206;5.114;2023-10-08T09:24:33;3.17;;;1.40;;
64885;SDS011;51514;52.206;5.114;2023-10-08T09:27:01;2.58;;;1.15;;
64885;SDS011;51514;52.206;5.114;2023-10-08T09:29:34;2.50;;;1.20;;
64885;SDS011;51514;52.206;5.114;2023-10-08T09:32:04;3.45;;;1.20;;
64885;SDS011;51514;52.206;5.114;2023-10-08T09:34:31;2.10;;;1.13;;
64885;SDS011;51514;52.206;5.114;2023-10-08T09:36:58;3.13;;;1.00;;
64885;SDS011;51514;52.206;5.114;2023-10-08T09:39:26;2.75;;;1.33;;
64885;SDS011;51514;52.206;5.114;2023-10-08T09:41:54;2.65;;;1.33;;
64885;SDS011;51514;52.206;5.114;2023-10-08T09:44:21;2.42;;;1.17;;
64885;SDS011;51514;52.206;5.114;2023-10-08T09:46:54;1.88;;;1.15;;
64885;SDS011;51514;52.206;5.114;2023-10-08T09:49:31;3.17;;;1.20;;
64885;SDS011;51514;52.206;5.114;2023-10-08T09:51:59;3.05;;;1.40;;
64885;SDS011;51514;52.206;5.114;2023-10-08T09:54:31;5.28;;;1.45;;
64885;SDS011;51514;52.206;5.114;2023-10-08T09:57:04;3.10;;;1.52;;
64885;SDS011;51514;52.206;5.114;2023-10-08T09:59:32;1.75;;;1.20;;
64885;SDS011;51514;52.206;5.114;2023-10-08T10:01:59;2.53;;;1.00;;
64885;SDS011;51514;52.206;5.114;2023-10-08T10:04:25;1.42;;;1.00;;
64885;SDS011;51514;52.206;5.114;2023-10-08T10:06:56;2.03;;;1.20;;
64885;SDS011;51514;52.206;5.114;2023-10-08T10:09:25;2.33;;;1.23;;
64885;SDS011;51514;52.206;5.114;2023-10-08T10:11:52;3.95;;;1.38;;
64885;SDS011;51514;52.206;5.114;2023-10-08T10:14:23;1.83;;;1.17;;
64885;SDS011;51514;52.206;5.114;2023-10-08T10:17:08;2.50;;;1.00;;
64885;SDS011;51514;52.206;5.114;2023-10-08T10:19:57;3.63;;;1.52;;
64885;SDS011;51514;52.206;5.114;2023-10-08T10:24:54;2.58;;;1.50;;
64885;SDS011;51514;52.206;5.114;2023-10-08T10:27:21;1.38;;;0.98;;
64885;SDS011;51514;52.206;5.114;2023-10-08T10:29:47;3.20;;;1.10;;
64885;SDS011;51514;52.206;5.114;2023-10-08T10:32:13;1.92;;;0.88;;
64885;SDS011;51514;52.206;5.114;2023-10-08T10:34:40;1.30;;;1.00;;
64885;SDS011;51514;52.206;5.114;2023-10-08T10:37:07;1.63;;;0.93;;
64885;SDS011;51514;52.206;5.114;2023-10-08T10:39:54;2.50;;;1.10;;
64885;SDS011;51514;52.206;5.114;2023-10-08T10:42:23;2.38;;;0.93;;
64885;SDS011;51514;52.206;5.114;2023-10-08T10:44:49;1.38;;;1.10;;
64885;SDS011;51514;52.206;5.114;2023-10-08T10:47:15;1.40;;;1.15;;
64885;SDS011;51514;52.206;5.114;2023-10-08T10:49:43;2.70;;;1.10;;
64885;SDS011;51514;52.206;5.114;2023-10-08T10:52:21;1.50;;;1.13;;
64885;SDS011;51514;52.206;5.114;2023-10-08T10:57:54;2.80;;;1.08;;
64885;SDS011;51514;52.206;5.114;2023-10-08T11:00:24;1.42;;;1.10;;
64885;SDS011;51514;52.206;5.114;2023-10-08T11:03:02;3.75;;;1.40;;
64885;SDS011;51514;52.206;5.114;2023-10-08T11:05:29;1.73;;;1.10;;
64885;SDS011;51514;52.206;5.114;2023-10-08T11:07:58;1.77;;;1.00;;
64885;SDS011;51514;52.206;5.114;2023-10-08T11:10:36;1.80;;;1.27;;
64885;SDS011;51514;52.206;5.114;2023-10-08T11:13:11;1.48;;;0.80;;
64885;SDS011;51514;52.206;5.114;2023-10-08T11:15:40;1.40;;;1.20;;
64885;SDS011;51514;52.206;5.114;2023-10-08T11:18:07;2.38;;;1.00;;
64885;SDS011;51514;52.206;5.114;2023-10-08T11:20:34;1.98;;;1.08;;
64885;SDS011;51514;52.206;5.114;2023-10-08T11:23:05;1.38;;;0.90;;
64885;SDS011;51514;52.206;5.114;2023-10-08T11:25:55;1.73;;;1.02;;
64885;SDS011;51514;52.206;5.114;2023-10-08T11:28:28;2.75;;;1.40;;
64885;SDS011;51514;52.206;5.114;2023-10-08T11:30:54;1.95;;;0.98;;
64885;SDS011;51514;52.206;5.114;2023-10-08T11:33:22;2.38;;;0.95;;
64885;SDS011;51514;52.206;5.114;2023-10-08T11:35:57;1.90;;;0.95;;
64885;SDS011;51514;52.206;5.114;2023-10-08T11:38:26;2.00;;;1.23;;
64885;SDS011;51514;52.206;5.114;2023-10-08T11:40:53;1.48;;;1.23;;
64885;SDS011;51514;52.206;5.114;2023-10-08T11:43:24;1.15;;;1.02;;
64885;SDS011;51514;52.206;5.114;2023-10-08T11:45:50;1.88;;;1.10;;
64885;SDS011;51514;52.206;5.114;2023-10-08T11:48:16;4.43;;;1.20;;
64885;SDS011;51514;52.206;5.114;2023-10-08T11:50:51;2.97;;;2.05;;
64885;SDS011;51514;52.206;5.114;2023-10-08T11:53:16;1.45;;;0.93;;
64885;SDS011;51514;52.206;5.114;2023-10-08T11:55:44;2.35;;;0.95;;
64885;SDS011;51514;52.206;5.114;2023-10-08T11:58:12;1.63;;;1.00;;
64885;SDS011;51514;52.206;5.114;2023-10-08T12:00:42;1.35;;;0.80;;
64885;SDS011;51514;52.206;5.114;2023-10-08T12:03:12;2.50;;;1.35;;
64885;SDS011;51514;52.206;5.114;2023-10-08T12:05:38;1.27;;;1.10;;
64885;SDS011;51514;52.206;5.114;2023-10-08T12:08:12;3.05;;;1.10;;
64885;SDS011;51514;52.206;5.114;2023-10-08T12:10:39;2.13;;;1.58;;
64885;SDS011;51514;52.206;5.114;2023-10-08T12:13:06;2.17;;;1.35;;
64885;SDS011;51514;52.206;5.114;2023-10-08T12:15:31;1.73;;;0.80;;
64885;SDS011;51514;52.206;5.114;2023-10-08T12:18:03;2.13;;;1.38;;
64885;SDS011;51514;52.206;5.114;2023-10-08T12:20:49;2.25;;;1.10;;
64885;SDS011;51514;52.206;5.114;2023-10-08T12:23:16;2.50;;;1.38;;
64885;SDS011;51514;52.206;5.114;2023-10-08T12:25:59;2.60;;;1.30;;
64885;SDS011;51514;52.206;5.114;2023-10-08T12:28:25;2.92;;;1.45;;
64885;SDS011;51514;52.206;5.114;2023-10-08T12:30:52;1.90;;;1.17;;
64885;SDS011;51514;52.206;5.114;2023-10-08T12:33:18;1.38;;;1.25;;
64885;SDS011;51514;52.206;5.114;2023-10-08T12:35:49;2.72;;;1.58;;
64885;SDS011;51514;52.206;5.114;2023-10-08T12:38:18;2.65;;;1.25;;
64885;SDS011;51514;52.206;5.114;2023-10-08T12:40:47;1.75;;;1.40;;
64885;SDS011;51514;52.206;5.114;2023-10-08T12:43:18;1.52;;;1.42;;
64885;SDS011;51514;52.206;5.114;2023-10-08T12:45:48;2.83;;;1.17;;
64885;SDS011;51514;52.206;5.114;2023-10-08T12:48:26;1.98;;;1.40;;
64885;SDS011;51514;52.206;5.114;2023-10-08T12:50:53;2.55;;;1.75;;
64885;SDS011;51514;52.206;5.114;2023-10-08T12:53:25;5.43;;;1.33;;
64885;SDS011;51514;52.206;5.114;2023-10-08T12:55:55;1.98;;;1.52;;
64885;SDS011;51514;52.206;5.114;2023-10-08T12:58:23;2.20;;;1.35;;
64885;SDS011;51514;52.206;5.114;2023-10-08T13:00:54;2.85;;;1.70;;
64885;SDS011;51514;52.206;5.114;2023-10-08T13:03:26;2.72;;;1.60;;
64885;SDS011;51514;52.206;5.114;2023-10-08T13:05:56;3.53;;;1.80;;
64885;SDS011;51514;52.206;5.114;2023-10-08T13:08:32;2.35;;;1.52;;
64885;SDS011;51514;52.206;5.114;2023-10-08T13:10:59;2.78;;;1.58;;
64885;SDS011;51514;52.206;5.114;2023-10-08T13:13:27;1.98;;;1.77;;
64885;SDS011;51514;52.206;5.114;2023-10-08T13:15:54;3.17;;;1.70;;
64885;SDS011;51514;52.206;5.114;2023-10-08T13:18:22;2.33;;;1.70;;
64885;SDS011;51514;52.206;5.114;2023-10-08T13:20:50;2.35;;;1.80;;
64885;SDS011;51514;52.206;5.114;2023-10-08T13:23:16;3.33;;;1.98;;
64885;SDS011;51514;52.206;5.114;2023-10-08T13:25:42;2.88;;;2.00;;
64885;SDS011;51514;52.206;5.114;2023-10-08T13:28:08;2.88;;;1.92;;
64885;SDS011;51514;52.206;5.114;2023-10-08T13:30:36;3.00;;;1.70;;
64885;SDS011;51514;52.206;5.114;2023-10-08T13:33:02;4.45;;;1.83;;
64885;SDS011;51514;52.206;5.114;2023-10-08T13:35:28;3.60;;;2.45;;
64885;SDS011;51514;52.206;5.114;2023-10-08T13:37:53;3.90;;;2.03;;
64885;SDS011;51514;52.206;5.114;2023-10-08T13:40:20;3.05;;;2.20;;
64885;SDS011;51514;52.206;5.114;2023-10-08T13:42:57;2.78;;;1.80;;
64885;SDS011;51514;52.206;5.114;2023-10-08T13:45:22;3.40;;;1.60;;
64885;SDS011;51514;52.206;5.114;2023-10-08T13:47:51;4.57;;;1.85;;
64885;SDS011;51514;52.206;5.114;2023-10-08T13:50:17;6.80;;;1.75;;
64885;SDS011;51514;52.206;5.114;2023-10-08T13:52:43;4.38;;;2.20;;
64885;SDS011;51514;52.206;5.114;2023-10-08T13:55:09;6.30;;;1.90;;
64885;SDS011;51514;52.206;5.114;2023-10-08T14:00:06;6.15;;;2.13;;
64885;SDS011;51514;52.206;5.114;2023-10-08T14:02:40;2.70;;;1.77;;
64885;SDS011;51514;52.206;5.114;2023-10-08T14:05:06;6.05;;;1.83;;
64885;SDS011;51514;52.206;5.114;2023-10-08T14:07:34;5.90;;;1.90;;
64885;SDS011;51514;52.206;5.114;2023-10-08T14:10:00;5.28;;;2.08;;
64885;SDS011;51514;52.206;5.114;2023-10-08T14:12:30;4.22;;;1.90;;
64885;SDS011;51514;52.206;5.114;2023-10-08T14:14:59;5.50;;;1.85;;
64885;SDS011;51514;52.206;5.114;2023-10-08T14:17:31;3.17;;;1.48;;
64885;SDS011;51514;52.206;5.114;2023-10-08T14:20:08;5.03;;;2.10;;
64885;SDS011;51514;52.206;5.114;2023-10-08T14:22:38;5.28;;;1.88;;
64885;SDS011;51514;52.206;5.114;2023-10-08T14:25:05;5.57;;;1.65;;
64885;SDS011;51514;52.206;5.114;2023-10-08T14:27:37;5.40;;;1.83;;
64885;SDS011;51514;52.206;5.114;2023-10-08T14:30:08;13.75;;;2.40;;
64885;SDS011;51514;52.206;5.114;2023-10-08T14:32:40;4.28;;;1.90;;
64885;SDS011;51514;52.206;5.114;2023-10-08T14:35:11;5.57;;;2.10;;
64885;SDS011;51514;52.206;5.114;2023-10-08T14:37:57;4.50;;;1.77;;
64885;SDS011;51514;52.206;5.114;2023-10-08T14:40:42;6.95;;;1.95;;
64885;SDS011;51514;52.206;5.114;2023-10-08T14:43:26;4.80;;;1.80;;
64885;SDS011;51514;52.206;5.114;2023-10-08T14:48:22;6.25;;;1.92;;
64885;SDS011;51514;52.206;5.114;2023-10-08T14:50:48;5.47;;;2.00;;
64885;SDS011;51514;52.206;5.114;2023-10-08T14:53:14;4.85;;;1.95;;
64885;SDS011;51514;52.206;5.114;2023-10-08T14:55:40;4.18;;;1.45;;
64885;SDS011;51514;52.206;5.114;2023-10-08T14:58:06;2.65;;;1.70;;
64885;SDS011;51514;52.206;5.114;2023-10-08T15:00:35;4.68;;;2.03;;
64885;SDS011;51514;52.206;5.114;2023-10-08T15:03:03;3.30;;;1.70;;
64885;SDS011;51514;52.206;5.114;2023-10-08T15:05:28;5.93;;;2.10;;
64885;SDS011;51514;52.206;5.114;2023-10-08T15:07:55;2.40;;;1.80;;
64885;SDS011;51514;52.206;5.114;2023-10-08T15:10:21;6.00;;;1.75;;
64885;SDS011;51514;52.206;5.114;2023-10-08T15:12:46;8.30;;;2.00;;
64885;SDS011;51514;52.206;5.114;2023-10-08T15:15:12;4.72;;;1.92;;
64885;SDS011;51514;52.206;5.114;2023-10-08T15:17:42;3.05;;;1.70;;
64885;SDS011;51514;52.206;5.114;2023-10-08T15:20:11;4.35;;;1.88;;
64885;SDS011;51514;52.206;5.114;2023-10-08T15:22:41;3.63;;;1.90;;
64885;SDS011;51514;52.206;5.114;2023-10-08T15:25:08;3.55;;;1.88;;
64885;SDS011;51514;52.206;5.114;2023-10-08T15:27:36;5.78;;;1.77;;
64885;SDS011;51514;52.206;5.114;2023-10-08T15:30:05;4.05;;;1.55;;